| time (UTC) | temp F | wind direction | speed knots | gust knots | rain 1hr in | rain 24hr in | rain mn in | humidity % | barometer mb |
| 20260505100504 | 45 | 325 | 0.0 | 0.0 | 0.00 | 0.10 | 0.10 | 79 | 1003.0 |
| 20260505095956 | 45 | 325 | 0.0 | 0.0 | 0.00 | 0.10 | 0.10 | 80 | 1003.0 |
| 20260505095451 | 46 | 327 | 0.0 | 0.0 | 0.00 | 0.10 | 0.10 | 80 | 1003.0 |
| 20260505095206 | 46 | 327 | 0.0 | 0.9 | 0.00 | 0.10 | 0.10 | 81 | 1002.9 |
| 20260505094704 | 46 | 326 | 0.0 | 0.9 | 0.00 | 0.10 | 0.10 | 81 | 1002.9 |
| 20260505093933 | 46 | 326 | 0.0 | 0.9 | 0.00 | 0.10 | 0.10 | 82 | 1002.9 |
| 20260505093429 | 46 | 327 | 0.0 | 0.0 | 0.00 | 0.10 | 0.10 | 83 | 1002.4 |
| 20260505092910 | 45 | 326 | 0.0 | 0.9 | 0.00 | 0.10 | 0.10 | 83 | 1002.4 |
| 20260505092636 | 45 | 327 | 0.0 | 1.7 | 0.00 | 0.10 | 0.10 | 84 | 1002.4 |
| 20260505091858 | 46 | 347 | 0.0 | 1.7 | 0.00 | 0.10 | 0.10 | 84 | 1002.1 |
| 20260505091357 | 46 | 346 | 0.0 | 0.9 | 0.00 | 0.10 | 0.10 | 85 | 1002.1 |
| 20260505090857 | 46 | 347 | 0.0 | 0.9 | 0.00 | 0.10 | 0.10 | 86 | 1001.7 |
| 20260505090335 | 46 | 348 | 0.0 | 0.9 | 0.00 | 0.10 | 0.10 | 86 | 1001.7 |
| 20260505085834 | 46 | 347 | 0.0 | 0.0 | 0.00 | 0.10 | 0.10 | 86 | 1001.7 |
| 20260505085316 | 46 | 347 | 0.0 | 0.0 | 0.00 | 0.10 | 0.10 | 86 | 1001.4 |
| 20260505084805 | 46 | 348 | 0.0 | 0.9 | 0.00 | 0.10 | 0.10 | 86 | 1001.4 |
| 20260505084240 | 46 | 347 | 0.0 | 0.9 | 0.00 | 0.10 | 0.10 | 86 | 1001.5 |
| 20260505083735 | 46 | 346 | 0.0 | 0.0 | 0.00 | 0.10 | 0.10 | 86 | 1001.4 |
| 20260505083228 | 46 | 348 | 0.0 | 0.0 | 0.00 | 0.10 | 0.10 | 85 | 1001.3 |
| 20260505082723 | 46 | 348 | 0.0 | 0.0 | 0.01 | 0.10 | 0.10 | 84 | 1001.4 |
| 20260505082222 | 46 | 348 | 0.0 | 0.0 | 0.01 | 0.10 | 0.10 | 84 | 1001.5 |
| 20260505081653 | 46 | 348 | 0.0 | 0.0 | 0.01 | 0.10 | 0.10 | 83 | 1001.6 |
| 20260505081152 | 46 | 348 | 0.0 | 0.9 | 0.01 | 0.10 | 0.10 | 83 | 1001.6 |
| 20260505080650 | 46 | 346 | 0.0 | 1.7 | 0.01 | 0.10 | 0.10 | 82 | 1001.0 |
| 20260505080152 | 46 | 347 | 0.0 | 1.7 | 0.01 | 0.10 | 0.10 | 82 | 1001.0 |
| 20260505075648 | 46 | 346 | 0.0 | 1.7 | 0.01 | 0.10 | 0.10 | 82 | 1001.0 |
| 20260505075145 | 46 | 0 | 0.0 | 0.9 | 0.01 | 0.10 | 0.10 | 82 | 1001.1 |
| 20260505074908 | 46 | 0 | 0.0 | 0.9 | 0.01 | 0.10 | 0.10 | 81 | 1001.1 |
| 20260505074143 | 46 | 0 | 0.0 | 2.6 | 0.01 | 0.10 | 0.10 | 81 | 1001.1 |
| 20260505073621 | 46 | 0 | 0.9 | 2.6 | 0.01 | 0.10 | 0.10 | 81 | 1000.7 |
| 20260505073116 | 46 | 17 | 0.9 | 1.7 | 0.00 | 0.09 | 0.10 | 82 | 1000.7 |
| 20260505072613 | 47 | 0 | 0.0 | 1.7 | 0.00 | 0.09 | 0.09 | 82 | 1000.7 |
| 20260505072112 | 46 | 0 | 0.0 | 1.7 | 0.02 | 0.09 | 0.09 | 82 | 1001.2 |
| 20260505071546 | 46 | 0 | 0.0 | 1.7 | 0.02 | 0.09 | 0.09 | 82 | 1001.2 |
| 20260505071040 | 46 | 0 | 0.0 | 0.9 | 0.04 | 0.09 | 0.09 | 81 | 1001.2 |
| 20260505070530 | 46 | 0 | 0.9 | 2.6 | 0.04 | 0.09 | 0.09 | 81 | 1000.5 |
| 20260505070019 | 46 | 0 | 0.9 | 2.6 | 0.04 | 0.09 | 0.09 | 80 | 1000.5 |
| 20260505065506 | 46 | 0 | 0.9 | 3.5 | 0.06 | 0.09 | 0.09 | 80 | 1000.5 |
| 20260505065006 | 46 | 0 | 0.9 | 3.5 | 0.07 | 0.09 | 0.09 | 79 | 1001.0 |
| 20260505064456 | 46 | 0 | 0.9 | 3.5 | 0.09 | 0.09 | 0.09 | 80 | 1001.0 |
| 20260505064222 | 46 | 0 | 0.9 | 3.5 | 0.09 | 0.09 | 0.09 | 80 | 1001.0 |
| 20260505063451 | 46 | 331 | 0.0 | 1.7 | 0.09 | 0.09 | 0.09 | 80 | 1001.4 |
| 20260505063426 | 47 | 336 | 0.9 | 2.6 | 0.09 | 0.09 | 0.09 | 79 | 1001.4 |
| 20260505062436 | 47 | 0 | 0.9 | 2.6 | 0.07 | 0.07 | 0.09 | 78 | 1001.4 |
| 20260505061936 | 47 | 0 | 0.0 | 2.6 | 0.07 | 0.07 | 0.07 | 77 | 1001.8 |
| 20260505061434 | 47 | 0 | 0.0 | 1.7 | 0.07 | 0.07 | 0.07 | 76 | 1001.8 |
| 20260505061139 | 48 | 0 | 0.0 | 1.7 | 0.05 | 0.05 | 0.05 | 74 | 1001.9 |
| 20260505060633 | 48 | 0 | 0.0 | 2.6 | 0.05 | 0.05 | 0.05 | 72 | 1002.0 |
| 20260505055906 | 49 | 0 | 0.9 | 3.5 | 0.05 | 0.05 | 0.05 | 70 | 1002.0 |
| 20260505055359 | 49 | 0 | 0.9 | 4.3 | 0.03 | 0.03 | 0.03 | 67 | 1002.4 |
| 20260505054859 | 50 | 0 | 0.9 | 4.3 | 0.02 | 0.02 | 0.02 | 64 | 1002.4 |
| 20260505054619 | 50 | 0 | 0.9 | 3.5 | 0.00 | 0.00 | 0.00 | 62 | 1002.5 |
| 20260505053858 | 51 | 0 | 0.9 | 3.5 | 0.00 | 0.00 | 0.00 | 58 | 1002.2 |
| 20260505053359 | 51 | 0 | 0.9 | 4.3 | 0.00 | 0.00 | 0.00 | 57 | 1002.2 |
| 20260505052830 | 52 | 0 | 1.7 | 7.8 | 0.00 | 0.00 | 0.00 | 54 | 1002.4 |
| 20260505052324 | 52 | 313 | 2.6 | 7.8 | 0.00 | 0.00 | 0.00 | 49 | 1001.7 |
| 20260505051813 | 53 | 28 | 2.6 | 7.8 | 0.00 | 0.00 | 0.00 | 46 | 1001.7 |
| 20260505051312 | 53 | 48 | 2.6 | 8.7 | 0.00 | 0.00 | 0.00 | 46 | 1001.7 |
| 20260505051031 | 53 | 29 | 3.5 | 8.7 | 0.00 | 0.00 | 0.00 | 44 | 1001.9 |
| 20260505050300 | 53 | 355 | 3.5 | 8.7 | 0.00 | 0.00 | 0.00 | 43 | 1001.9 |
| 20260505041707 | 54 | 322 | 3.5 | 8.7 | 0.00 | 0.00 | 0.00 | 44 | 1001.0 |
| 20260505041201 | 54 | 306 | 3.5 | 9.6 | 0.00 | 0.00 | 0.00 | 44 | 1001.0 |
| 20260505040655 | 54 | 26 | 2.6 | 9.6 | 0.00 | 0.00 | 0.00 | 44 | 1001.3 |
| 20260505040145 | 54 | 355 | 2.6 | 7.8 | 0.00 | 0.00 | 0.00 | 42 | 1001.3 |
| 20260505035639 | 54 | 355 | 3.5 | 11.3 | 0.00 | 0.00 | 0.00 | 42 | 1001.3 |
| 20260505035132 | 54 | 355 | 4.3 | 11.3 | 0.00 | 0.00 | 0.00 | 41 | 1001.5 |
| 20260505034627 | 54 | 12 | 4.3 | 11.3 | 0.00 | 0.00 | 0.00 | 40 | 1001.5 |
| 20260505034116 | 55 | 22 | 3.5 | 9.6 | 0.00 | 0.00 | 0.00 | 39 | 1001.5 |
| 20260505033614 | 55 | 5 | 2.6 | 9.6 | 0.00 | 0.00 | 0.00 | 39 | 1001.3 |
| 20260505033109 | 55 | 304 | 4.3 | 12.2 | 0.00 | 0.00 | 0.00 | 39 | 1001.3 |
| 20260505032825 | 55 | 0 | 3.5 | 12.2 | 0.00 | 0.00 | 0.00 | 38 | 1001.4 |
| 20260505032057 | 55 | 32 | 3.5 | 9.6 | 0.00 | 0.00 | 0.00 | 38 | 1001.4 |
| 20260505031547 | 55 | 63 | 4.3 | 12.2 | 0.00 | 0.00 | 0.00 | 39 | 1001.4 |
| 20260505031308 | 55 | 313 | 4.3 | 12.2 | 0.00 | 0.00 | 0.00 | 38 | 1001.4 |
| 20260505030539 | 55 | 30 | 4.3 | 12.2 | 0.00 | 0.00 | 0.00 | 39 | 1001.0 |
| 20260505030033 | 55 | 9 | 5.2 | 12.2 | 0.00 | 0.00 | 0.00 | 39 | 1001.0 |
| 20260505025742 | 56 | 0 | 5.2 | 12.2 | 0.00 | 0.00 | 0.00 | 39 | 1001.0 |
| 20260505025022 | 56 | 38 | 4.3 | 10.4 | 0.00 | 0.00 | 0.00 | 39 | 1001.2 |
| 20260505024523 | 56 | 355 | 3.5 | 10.4 | 0.00 | 0.00 | 0.00 | 39 | 1001.2 |
| 20260505024022 | 56 | 342 | 3.5 | 10.4 | 0.00 | 0.00 | 0.00 | 39 | 1001.2 |
| 20260505023744 | 56 | 337 | 2.6 | 10.4 | 0.00 | 0.00 | 0.00 | 38 | 1001.3 |
| 20260505023023 | 56 | 36 | 3.5 | 10.4 | 0.00 | 0.00 | 0.00 | 38 | 1001.3 |
| 20260505023018 | 56 | 26 | 4.3 | 9.6 | 0.00 | 0.00 | 0.00 | 37 | 1001.4 |
| 20260505022018 | 56 | 0 | 3.5 | 12.2 | 0.00 | 0.00 | 0.00 | 37 | 1000.9 |
| 20260505021519 | 56 | 34 | 4.3 | 12.2 | 0.00 | 0.00 | 0.00 | 36 | 1000.9 |
| 20260505021018 | 57 | 348 | 5.2 | 10.4 | 0.00 | 0.00 | 0.00 | 35 | 1000.9 |
| 20260505020520 | 57 | 0 | 5.2 | 17.4 | 0.00 | 0.00 | 0.00 | 35 | 1000.4 |
| 20260505020019 | 57 | 348 | 6.1 | 17.4 | 0.00 | 0.00 | 0.00 | 35 | 1000.5 |
| 20260505015519 | 57 | 15 | 6.1 | 16.5 | 0.00 | 0.00 | 0.00 | 34 | 1000.5 |
| 20260505015013 | 58 | 12 | 5.2 | 16.5 | 0.00 | 0.00 | 0.00 | 34 | 1000.7 |
| 20260505014502 | 58 | 11 | 4.3 | 13.0 | 0.00 | 0.00 | 0.00 | 35 | 1000.7 |
| 20260505014207 | 58 | 15 | 5.2 | 17.4 | 0.00 | 0.00 | 0.00 | 35 | 1000.8 |
| 20260505013445 | 58 | 37 | 5.2 | 17.4 | 0.00 | 0.00 | 0.00 | 35 | 1000.5 |
| 20260505012944 | 59 | 5 | 5.2 | 13.0 | 0.00 | 0.00 | 0.00 | 34 | 1000.5 |
| 20260505012444 | 59 | 343 | 5.2 | 13.0 | 0.00 | 0.00 | 0.00 | 34 | 1000.6 |
| 20260505011944 | 60 | 0 | 6.1 | 15.6 | 0.00 | 0.00 | 0.00 | 32 | 999.5 |
| 20260505011658 | 61 | 27 | 6.1 | 15.6 | 0.00 | 0.00 | 0.00 | 30 | 999.6 |
| 20260505010945 | 62 | 36 | 6.1 | 13.9 | 0.00 | 0.00 | 0.00 | 28 | 999.7 |
| 20260505010442 | 62 | 0 | 6.1 | 15.6 | 0.00 | 0.00 | 0.00 | 28 | 999.8 |
| 20260505010206 | 63 | 30 | 6.1 | 15.6 | 0.00 | 0.00 | 0.00 | 28 | 999.9 |
| 20260505005442 | 63 | 13 | 6.1 | 14.8 | 0.00 | 0.00 | 0.00 | 27 | 999.9 |
| 20260505004937 | 64 | 17 | 5.2 | 15.6 | 0.00 | 0.00 | 0.00 | 27 | 999.5 |
| 20260505004425 | 65 | 38 | 4.3 | 15.6 | 0.00 | 0.00 | 0.00 | 28 | 999.5 |
| 20260505003913 | 65 | 342 | 5.2 | 15.6 | 0.00 | 0.00 | 0.00 | 27 | 999.6 |
| 20260505003407 | 66 | 342 | 5.2 | 15.6 | 0.00 | 0.00 | 0.00 | 28 | 999.1 |
| 20260505002907 | 66 | 18 | 5.2 | 14.8 | 0.00 | 0.00 | 0.00 | 26 | 999.1 |
| 20260505002407 | 66 | 27 | 4.3 | 13.0 | 0.00 | 0.00 | 0.00 | 26 | 999.2 |
| 20260505001906 | 67 | 25 | 4.3 | 16.5 | 0.00 | 0.00 | 0.00 | 26 | 998.8 |
| 20260505001406 | 68 | 343 | 5.2 | 16.5 | 0.00 | 0.00 | 0.00 | 26 | 998.8 |
| 20260505000906 | 69 | 44 | 6.1 | 14.8 | 0.00 | 0.00 | 0.00 | 26 | 998.9 |
| 20260505000408 | 69 | 334 | 5.2 | 14.8 | 0.00 | 0.00 | 0.00 | 25 | 998.8 |
| 20260504235905 | 70 | 0 | 3.5 | 11.3 | 0.00 | 0.00 | 0.00 | 25 | 998.9 |
| 20260504235406 | 70 | 344 | 4.3 | 11.3 | 0.00 | 0.00 | 0.00 | 25 | 998.9 |
| 20260504234904 | 70 | 10 | 4.3 | 12.2 | 0.00 | 0.00 | 0.00 | 25 | 998.8 |
| 20260504234350 | 71 | 37 | 3.5 | 12.2 | 0.00 | 0.00 | 0.00 | 24 | 998.8 |
| 20260504233852 | 71 | 36 | 3.5 | 12.2 | 0.00 | 0.00 | 0.00 | 24 | 998.5 |
| 20260504233344 | 72 | 344 | 4.3 | 12.2 | 0.00 | 0.00 | 0.00 | 24 | 998.5 |
| 20260504232839 | 72 | 319 | 4.3 | 13.0 | 0.00 | 0.00 | 0.00 | 24 | 998.5 |
| 20260504232555 | 72 | 13 | 4.3 | 13.9 | 0.00 | 0.00 | 0.00 | 23 | 998.4 |
| 20260504231822 | 72 | 0 | 4.3 | 15.6 | 0.00 | 0.00 | 0.00 | 23 | 998.4 |
| 20260504231318 | 72 | 309 | 5.2 | 15.6 | 0.00 | 0.00 | 0.00 | 24 | 998.4 |
| 20260504230810 | 73 | 311 | 6.1 | 13.9 | 0.00 | 0.00 | 0.00 | 23 | 998.3 |
| 20260504230305 | 73 | 21 | 6.1 | 13.9 | 0.00 | 0.00 | 0.00 | 23 | 998.3 |
| 20260504230018 | 74 | 350 | 5.2 | 13.0 | 0.00 | 0.00 | 0.00 | 23 | 998.4 |
| 20260504225248 | 74 | 355 | 4.3 | 13.0 | 0.00 | 0.00 | 0.00 | 22 | 997.9 |
| 20260504224741 | 74 | 355 | 3.5 | 13.0 | 0.00 | 0.00 | 0.00 | 22 | 998.0 |
| 20260504224235 | 75 | 26 | 4.3 | 12.2 | 0.00 | 0.00 | 0.00 | 23 | 998.0 |
| 20260504223722 | 75 | 0 | 4.3 | 12.2 | 0.00 | 0.00 | 0.00 | 22 | 997.9 |
| 20260504223445 | 75 | 13 | 4.3 | 12.2 | 0.00 | 0.00 | 0.00 | 22 | 997.9 |
| 20260504222711 | 75 | 347 | 5.2 | 13.9 | 0.00 | 0.00 | 0.00 | 23 | 997.9 |
| 20260504222204 | 75 | 35 | 5.2 | 14.8 | 0.00 | 0.00 | 0.00 | 22 | 997.5 |
| 20260504221913 | 76 | 22 | 5.2 | 13.0 | 0.00 | 0.00 | 0.00 | 22 | 997.6 |
| 20260504221148 | 76 | 24 | 5.2 | 13.0 | 0.00 | 0.00 | 0.00 | 22 | 997.6 |
| 20260504220642 | 76 | 294 | 5.2 | 11.3 | 0.00 | 0.00 | 0.00 | 21 | 997.3 |
| 20260504220350 | 77 | 35 | 4.3 | 13.0 | 0.00 | 0.00 | 0.00 | 23 | 997.4 |
| 20260504215630 | 77 | 31 | 3.5 | 13.0 | 0.00 | 0.00 | 0.00 | 22 | 997.4 |
| 20260504215120 | 78 | 339 | 3.5 | 11.3 | 0.00 | 0.00 | 0.00 | 24 | 996.9 |
| 20260504214838 | 78 | 33 | 3.5 | 11.3 | 0.00 | 0.00 | 0.00 | 22 | 997.0 |
| 20260504214107 | 78 | 16 | 4.3 | 10.4 | 0.00 | 0.00 | 0.00 | 24 | 997.0 |
| 20260504213607 | 78 | 355 | 3.5 | 11.3 | 0.00 | 0.00 | 0.00 | 23 | 997.0 |
| 20260504213100 | 78 | 9 | 3.5 | 11.3 | 0.00 | 0.00 | 0.00 | 24 | 997.0 |
| 20260504212811 | 78 | 260 | 3.5 | 10.4 | 0.00 | 0.00 | 0.00 | 23 | 997.0 |
| 20260504212048 | 78 | 5 | 4.3 | 10.4 | 0.00 | 0.00 | 0.00 | 24 | 996.8 |
| 20260504211542 | 78 | 284 | 4.3 | 10.4 | 0.00 | 0.00 | 0.00 | 25 | 996.8 |
| 20260504211303 | 79 | 13 | 3.5 | 10.4 | 0.00 | 0.00 | 0.00 | 25 | 996.8 |
| 20260504210531 | 79 | 351 | 2.6 | 8.7 | 0.00 | 0.00 | 0.00 | 25 | 996.8 |
| 20260504210020 | 80 | 340 | 2.6 | 8.7 | 0.00 | 0.00 | 0.00 | 25 | 996.8 |
| 20260504205519 | 79 | 311 | 3.5 | 8.7 | 0.00 | 0.00 | 0.00 | 27 | 996.8 |
| 20260504205008 | 79 | 290 | 3.5 | 8.7 | 0.00 | 0.00 | 0.00 | 25 | 996.6 |
| 20260504204506 | 80 | 336 | 2.6 | 8.7 | 0.00 | 0.00 | 0.00 | 26 | 996.6 |
| 20260504204222 | 80 | 317 | 2.6 | 8.7 | 0.00 | 0.00 | 0.00 | 26 | 996.6 |
| 20260504203450 | 79 | 286 | 3.5 | 11.3 | 0.00 | 0.00 | 0.00 | 27 | 996.4 |
| 20260504202949 | 80 | 355 | 3.5 | 12.2 | 0.00 | 0.00 | 0.00 | 26 | 996.4 |
| 20260504202442 | 80 | 11 | 3.5 | 12.2 | 0.00 | 0.00 | 0.00 | 25 | 996.4 |
| 20260504201936 | 80 | 17 | 2.6 | 12.2 | 0.00 | 0.00 | 0.00 | 27 | 996.7 |
| 20260504201430 | 80 | 24 | 3.5 | 13.0 | 0.00 | 0.00 | 0.00 | 28 | 996.7 |
| 20260504200927 | 79 | 277 | 4.3 | 16.5 | 0.00 | 0.00 | 0.00 | 25 | 996.7 |
| 20260504200428 | 79 | 346 | 3.5 | 16.5 | 0.00 | 0.00 | 0.00 | 24 | 996.3 |
| 20260504195928 | 79 | 305 | 3.5 | 8.7 | 0.00 | 0.00 | 0.00 | 25 | 996.3 |
| 20260504195429 | 79 | 290 | 3.5 | 8.7 | 0.00 | 0.00 | 0.00 | 23 | 996.3 |
| 20260504194927 | 80 | 346 | 2.6 | 8.7 | 0.00 | 0.00 | 0.00 | 24 | 996.3 |
| 20260504194428 | 81 | 346 | 1.7 | 7.8 | 0.00 | 0.00 | 0.00 | 23 | 996.3 |
| 20260504193929 | 81 | 271 | 2.6 | 7.8 | 0.00 | 0.00 | 0.00 | 21 | 996.3 |
| 20260504193413 | 82 | 210 | 2.6 | 8.7 | 0.00 | 0.00 | 0.00 | 21 | 996.3 |
| 20260504192913 | 81 | 282 | 2.6 | 8.7 | 0.00 | 0.00 | 0.00 | 20 | 996.3 |
| 20260504192411 | 81 | 274 | 2.6 | 7.8 | 0.00 | 0.00 | 0.00 | 23 | 996.2 |
| 20260504191911 | 81 | 5 | 2.6 | 7.8 | 0.00 | 0.00 | 0.00 | 20 | 996.3 |
| 20260504191411 | 81 | 260 | 3.5 | 10.4 | 0.00 | 0.00 | 0.00 | 22 | 996.3 |
| 20260504190910 | 81 | 311 | 3.5 | 10.4 | 0.00 | 0.00 | 0.00 | 21 | 996.3 |
| 20260504190409 | 81 | 225 | 3.5 | 10.4 | 0.00 | 0.00 | 0.00 | 22 | 996.3 |
| 20260504185910 | 81 | 209 | 2.6 | 9.6 | 0.00 | 0.00 | 0.00 | 22 | 996.3 |
| 20260504185412 | 80 | 327 | 2.6 | 7.8 | 0.00 | 0.00 | 0.00 | 22 | 996.3 |
| 20260504184910 | 80 | 0 | 3.5 | 11.3 | 0.00 | 0.00 | 0.00 | 22 | 996.4 |
| 20260504184409 | 80 | 344 | 3.5 | 11.3 | 0.00 | 0.00 | 0.00 | 20 | 996.4 |
| 20260504183910 | 80 | 17 | 3.5 | 12.2 | 0.00 | 0.00 | 0.00 | 22 | 996.3 |
| 20260504183632 | 79 | 355 | 4.3 | 12.2 | 0.00 | 0.00 | 0.00 | 21 | 996.6 |
| 20260504182902 | 80 | 290 | 4.3 | 11.3 | 0.00 | 0.00 | 0.00 | 22 | 996.6 |
| 20260504182356 | 80 | 269 | 2.6 | 11.3 | 0.00 | 0.00 | 0.00 | 22 | 996.6 |
| 20260504181846 | 80 | 324 | 2.6 | 7.8 | 0.00 | 0.00 | 0.00 | 23 | 996.6 |
| 20260504181344 | 79 | 258 | 3.5 | 10.4 | 0.00 | 0.00 | 0.00 | 23 | 996.6 |
| 20260504180838 | 79 | 223 | 2.6 | 10.4 | 0.00 | 0.00 | 0.00 | 23 | 996.7 |
| 20260504180332 | 79 | 259 | 2.6 | 8.7 | 0.00 | 0.00 | 0.00 | 23 | 996.7 |
| 20260504175826 | 79 | 19 | 2.6 | 8.7 | 0.00 | 0.00 | 0.00 | 24 | 996.7 |
| 20260504175534 | 79 | 274 | 1.7 | 4.3 | 0.00 | 0.00 | 0.00 | 25 | 996.8 |
| 20260504175033 | 79 | 319 | 2.6 | 8.7 | 0.00 | 0.00 | 0.00 | 25 | 996.8 |
| 20260504174518 | 78 | 259 | 3.5 | 8.7 | 0.00 | 0.00 | 0.00 | 25 | 996.7 |
| 20260504174401 | 78 | 34 | 2.6 | 8.7 | 0.00 | 0.00 | 0.00 | 26 | 996.7 |
| 20260504173311 | 78 | 339 | 3.5 | 10.4 | 0.00 | 0.00 | 0.00 | 24 | 996.7 |
| 20260504172812 | 78 | 268 | 3.5 | 10.4 | 0.00 | 0.00 | 0.00 | 27 | 996.7 |
| 20260504172309 | 78 | 340 | 3.5 | 9.6 | 0.00 | 0.00 | 0.00 | 24 | 996.8 |
| 20260504172025 | 79 | 259 | 2.6 | 8.7 | 0.00 | 0.00 | 0.00 | 26 | 996.8 |
| 20260504171307 | 78 | 238 | 2.6 | 7.0 | 0.00 | 0.00 | 0.00 | 26 | 996.8 |
| 20260504170807 | 78 | 272 | 2.6 | 10.4 | 0.00 | 0.00 | 0.00 | 27 | 996.6 |
| 20260504170307 | 78 | 313 | 2.6 | 10.4 | 0.00 | 0.00 | 0.00 | 26 | 996.6 |
| 20260504150706 | 68 | 247 | 2.6 | 7.8 | 0.00 | 0.00 | 0.00 | 44 | 996.2 |
| 20260504150209 | 67 | 305 | 2.6 | 5.2 | 0.00 | 0.00 | 0.00 | 45 | 996.1 |
| 20260504141151 | 64 | 238 | 1.7 | 5.2 | 0.00 | 0.00 | 0.00 | 47 | 995.9 |
| 20260504140646 | 63 | 196 | 2.6 | 6.1 | 0.00 | 0.00 | 0.00 | 48 | 996.3 |
| 20260504140133 | 63 | 215 | 4.3 | 8.7 | 0.00 | 0.00 | 0.00 | 47 | 996.2 |
| 20260504130522 | 57 | 202 | 0.0 | 2.6 | 0.00 | 0.00 | 0.00 | 58 | 995.9 |
| 20260504120311 | 48 | 290 | 0.0 | 0.0 | 0.00 | 0.00 | 0.00 | 75 | 995.4 |
| 20260504110635 | 47 | 0 | 0.0 | 0.0 | 0.00 | 0.00 | 0.00 | 72 | 995.3 |
| 20260504110138 | 47 | 0 | 0.0 | 0.0 | 0.00 | 0.00 | 0.00 | 72 | 995.3 |